Terminal Aerodrome Forecast
Issued by NWS Charleston, WV

Current Version | Previous Version | Graphics & Text | Print | Product List | Glossary On
Versions: 1 2 3 4 5 6 7 8 9 10 11 12 13 14 15 16 17 18 19 20 21 22 23 24 25 26
665
FTUS41 KRLX 011510 AAB
TAFHTS
TAF AMD
KHTS 011510Z 0115/0212 19010KT P6SM BKN008
     FM011600 20004KT P6SM BKN040
     FM012000 23005KT 5SM -SHRA VCTS BKN040CB
     FM012200 25006KT 2SM SHRA VCTS BKN023CB
     FM020000 VRB03KT 5SM -SHRA VCTS BKN023CB
     FM021000 22005KT 3SM -SHRA BKN035=

USA.gov is the U.S. government's official web portal to all federal, state and local government web resources and services.